sensor_id;sensor_type;location;lat;lon;timestamp;P1;durP1;ratioP1;P2;durP2;ratioP2
22697;SDS011;11516;51.612;7.510;2023-02-28T00:00:32;6.15;;;3.33;;
22697;SDS011;11516;51.612;7.510;2023-02-28T00:02:59;5.97;;;3.42;;
22697;SDS011;11516;51.612;7.510;2023-02-28T00:05:26;5.85;;;3.10;;
22697;SDS011;11516;51.612;7.510;2023-02-28T00:07:53;5.55;;;3.40;;
22697;SDS011;11516;51.612;7.510;2023-02-28T00:10:20;6.80;;;3.20;;
22697;SDS011;11516;51.612;7.510;2023-02-28T00:12:51;8.43;;;3.30;;
22697;SDS011;11516;51.612;7.510;2023-02-28T00:15:18;6.35;;;3.40;;
22697;SDS011;11516;51.612;7.510;2023-02-28T00:17:44;6.20;;;3.30;;
22697;SDS011;11516;51.612;7.510;2023-02-28T00:20:11;5.40;;;2.87;;
22697;SDS011;11516;51.612;7.510;2023-02-28T00:22:38;5.20;;;2.83;;
22697;SDS011;11516;51.612;7.510;2023-02-28T00:25:06;4.82;;;2.72;;
22697;SDS011;11516;51.612;7.510;2023-02-28T00:27:34;3.90;;;2.70;;
22697;SDS011;11516;51.612;7.510;2023-02-28T00:30:00;5.13;;;3.20;;
22697;SDS011;11516;51.612;7.510;2023-02-28T00:32:26;4.63;;;3.22;;
22697;SDS011;11516;51.612;7.510;2023-02-28T00:34:51;9.17;;;3.20;;
22697;SDS011;11516;51.612;7.510;2023-02-28T00:37:17;4.32;;;2.78;;
22697;SDS011;11516;51.612;7.510;2023-02-28T00:39:42;4.93;;;2.83;;
22697;SDS011;11516;51.612;7.510;2023-02-28T00:42:08;3.20;;;2.73;;
22697;SDS011;11516;51.612;7.510;2023-02-28T00:44:33;5.63;;;3.20;;
22697;SDS011;11516;51.612;7.510;2023-02-28T00:46:59;3.97;;;2.60;;
22697;SDS011;11516;51.612;7.510;2023-02-28T00:49:26;4.88;;;3.10;;
22697;SDS011;11516;51.612;7.510;2023-02-28T00:51:52;4.82;;;3.03;;
22697;SDS011;11516;51.612;7.510;2023-02-28T00:54:20;3.65;;;2.67;;
22697;SDS011;11516;51.612;7.510;2023-02-28T00:56:46;3.05;;;2.78;;
22697;SDS011;11516;51.612;7.510;2023-02-28T00:59:13;4.95;;;2.97;;
22697;SDS011;11516;51.612;7.510;2023-02-28T01:01:39;4.15;;;2.97;;
22697;SDS011;11516;51.612;7.510;2023-02-28T01:04:05;5.38;;;2.92;;
22697;SDS011;11516;51.612;7.510;2023-02-28T01:06:31;5.65;;;2.80;;
22697;SDS011;11516;51.612;7.510;2023-02-28T01:08:57;5.07;;;3.00;;
22697;SDS011;11516;51.612;7.510;2023-02-28T01:11:23;4.30;;;3.00;;
22697;SDS011;11516;51.612;7.510;2023-02-28T01:13:48;4.83;;;2.60;;
22697;SDS011;11516;51.612;7.510;2023-02-28T01:16:14;4.63;;;2.90;;
22697;SDS011;11516;51.612;7.510;2023-02-28T01:18:39;6.03;;;2.83;;
22697;SDS011;11516;51.612;7.510;2023-02-28T01:21:05;3.67;;;2.85;;
22697;SDS011;11516;51.612;7.510;2023-02-28T01:23:32;5.20;;;3.10;;
22697;SDS011;11516;51.612;7.510;2023-02-28T01:26:03;7.00;;;3.20;;
22697;SDS011;11516;51.612;7.510;2023-02-28T01:28:30;5.70;;;2.80;;
22697;SDS011;11516;51.612;7.510;2023-02-28T01:30:56;6.20;;;3.20;;
22697;SDS011;11516;51.612;7.510;2023-02-28T01:33:22;7.17;;;2.90;;
22697;SDS011;11516;51.612;7.510;2023-02-28T01:35:47;4.18;;;2.72;;
22697;SDS011;11516;51.612;7.510;2023-02-28T01:38:13;5.60;;;3.20;;
22697;SDS011;11516;51.612;7.510;2023-02-28T01:40:39;4.97;;;2.80;;
22697;SDS011;11516;51.612;7.510;2023-02-28T01:43:07;5.10;;;2.97;;
22697;SDS011;11516;51.612;7.510;2023-02-28T01:45:45;4.13;;;3.00;;
22697;SDS011;11516;51.612;7.510;2023-02-28T01:48:10;4.05;;;2.67;;
22697;SDS011;11516;51.612;7.510;2023-02-28T01:50:38;3.43;;;2.80;;
22697;SDS011;11516;51.612;7.510;2023-02-28T01:53:09;4.67;;;3.13;;
22697;SDS011;11516;51.612;7.510;2023-02-28T01:55:39;5.18;;;3.00;;
22697;SDS011;11516;51.612;7.510;2023-02-28T01:58:07;5.47;;;3.10;;
22697;SDS011;11516;51.612;7.510;2023-02-28T02:00:34;5.18;;;3.22;;
22697;SDS011;11516;51.612;7.510;2023-02-28T02:03:01;3.95;;;3.08;;
22697;SDS011;11516;51.612;7.510;2023-02-28T02:05:33;5.37;;;3.17;;
22697;SDS011;11516;51.612;7.510;2023-02-28T02:08:02;4.78;;;2.90;;
22697;SDS011;11516;51.612;7.510;2023-02-28T02:10:35;4.13;;;3.03;;
22697;SDS011;11516;51.612;7.510;2023-02-28T02:15:54;5.38;;;3.22;;
22697;SDS011;11516;51.612;7.510;2023-02-28T02:18:43;3.45;;;3.05;;
22697;SDS011;11516;51.612;7.510;2023-02-28T02:24:09;4.07;;;2.90;;
22697;SDS011;11516;51.612;7.510;2023-02-28T02:32:45;6.18;;;3.38;;
22697;SDS011;11516;51.612;7.510;2023-02-28T02:38:49;5.18;;;3.40;;
22697;SDS011;11516;51.612;7.510;2023-02-28T02:41:50;5.80;;;3.10;;
22697;SDS011;11516;51.612;7.510;2023-02-28T02:44:20;4.53;;;3.00;;
22697;SDS011;11516;51.612;7.510;2023-02-28T02:46:50;6.55;;;3.20;;
22697;SDS011;11516;51.612;7.510;2023-02-28T02:49:21;4.35;;;2.92;;
22697;SDS011;11516;51.612;7.510;2023-02-28T02:51:51;4.20;;;2.97;;
22697;SDS011;11516;51.612;7.510;2023-02-28T02:54:22;3.97;;;2.60;;
22697;SDS011;11516;51.612;7.510;2023-02-28T02:56:53;3.75;;;2.70;;
22697;SDS011;11516;51.612;7.510;2023-02-28T02:59:24;5.50;;;2.75;;
22697;SDS011;11516;51.612;7.510;2023-02-28T03:01:54;3.60;;;2.65;;
22697;SDS011;11516;51.612;7.510;2023-02-28T03:04:23;3.38;;;2.60;;
22697;SDS011;11516;51.612;7.510;2023-02-28T03:06:52;4.70;;;2.75;;
22697;SDS011;11516;51.612;7.510;2023-02-28T03:09:23;4.43;;;2.65;;
22697;SDS011;11516;51.612;7.510;2023-02-28T03:11:50;3.97;;;2.70;;
22697;SDS011;11516;51.612;7.510;2023-02-28T03:14:25;4.87;;;2.60;;
22697;SDS011;11516;51.612;7.510;2023-02-28T03:17:25;5.97;;;2.93;;
22697;SDS011;11516;51.612;7.510;2023-02-28T03:20:04;4.53;;;2.70;;
22697;SDS011;11516;51.612;7.510;2023-02-28T03:25:43;5.07;;;3.55;;
22697;SDS011;11516;51.612;7.510;2023-02-28T03:28:29;6.00;;;3.55;;
22697;SDS011;11516;51.612;7.510;2023-02-28T03:33:54;6.95;;;3.95;;
22697;SDS011;11516;51.612;7.510;2023-02-28T03:36:37;6.38;;;3.45;;
22697;SDS011;11516;51.612;7.510;2023-02-28T03:39:09;4.97;;;2.85;;
22697;SDS011;11516;51.612;7.510;2023-02-28T03:41:57;3.83;;;3.05;;
22697;SDS011;11516;51.612;7.510;2023-02-28T03:44:35;3.70;;;2.90;;
22697;SDS011;11516;51.612;7.510;2023-02-28T03:47:11;3.60;;;3.00;;
22697;SDS011;11516;51.612;7.510;2023-02-28T03:52:34;3.83;;;3.10;;
22697;SDS011;11516;51.612;7.510;2023-02-28T03:55:05;5.60;;;3.28;;
22697;SDS011;11516;51.612;7.510;2023-02-28T03:57:39;4.43;;;3.05;;
22697;SDS011;11516;51.612;7.510;2023-02-28T04:02:35;6.03;;;3.45;;
22697;SDS011;11516;51.612;7.510;2023-02-28T04:05:01;5.40;;;3.47;;
22697;SDS011;11516;51.612;7.510;2023-02-28T04:07:28;7.17;;;3.50;;
22697;SDS011;11516;51.612;7.510;2023-02-28T04:09:55;6.77;;;3.33;;
22697;SDS011;11516;51.612;7.510;2023-02-28T04:12:21;5.87;;;3.50;;
22697;SDS011;11516;51.612;7.510;2023-02-28T04:14:48;6.78;;;3.53;;
22697;SDS011;11516;51.612;7.510;2023-02-28T04:17:14;4.30;;;3.10;;
22697;SDS011;11516;51.612;7.510;2023-02-28T04:19:40;5.13;;;3.83;;
22697;SDS011;11516;51.612;7.510;2023-02-28T04:22:05;4.90;;;3.20;;
22697;SDS011;11516;51.612;7.510;2023-02-28T04:24:31;6.53;;;3.17;;
22697;SDS011;11516;51.612;7.510;2023-02-28T04:26:57;5.23;;;3.17;;
22697;SDS011;11516;51.612;7.510;2023-02-28T04:31:56;4.10;;;3.03;;
22697;SDS011;11516;51.612;7.510;2023-02-28T04:34:25;5.65;;;2.88;;
22697;SDS011;11516;51.612;7.510;2023-02-28T04:36:52;5.70;;;2.80;;
22697;SDS011;11516;51.612;7.510;2023-02-28T04:39:21;3.97;;;2.90;;
22697;SDS011;11516;51.612;7.510;2023-02-28T04:41:47;4.70;;;2.85;;
22697;SDS011;11516;51.612;7.510;2023-02-28T04:44:13;5.72;;;2.92;;
22697;SDS011;11516;51.612;7.510;2023-02-28T04:46:39;4.47;;;2.93;;
22697;SDS011;11516;51.612;7.510;2023-02-28T04:49:06;4.13;;;2.85;;
22697;SDS011;11516;51.612;7.510;2023-02-28T04:51:31;4.73;;;2.70;;
22697;SDS011;11516;51.612;7.510;2023-02-28T04:53:57;4.78;;;3.05;;
22697;SDS011;11516;51.612;7.510;2023-02-28T04:56:22;5.23;;;2.80;;
22697;SDS011;11516;51.612;7.510;2023-02-28T04:58:48;5.20;;;2.60;;
22697;SDS011;11516;51.612;7.510;2023-02-28T05:01:47;3.15;;;2.75;;
22697;SDS011;11516;51.612;7.510;2023-02-28T05:04:10;4.00;;;2.92;;
22697;SDS011;11516;51.612;7.510;2023-02-28T05:06:35;5.00;;;2.80;;
22697;SDS011;11516;51.612;7.510;2023-02-28T05:09:01;5.78;;;3.28;;
22697;SDS011;11516;51.612;7.510;2023-02-28T05:11:27;4.73;;;2.70;;
22697;SDS011;11516;51.612;7.510;2023-02-28T05:13:59;4.72;;;3.20;;
22697;SDS011;11516;51.612;7.510;2023-02-28T05:16:29;4.28;;;2.83;;
22697;SDS011;11516;51.612;7.510;2023-02-28T05:18:56;5.70;;;2.83;;
22697;SDS011;11516;51.612;7.510;2023-02-28T05:21:29;4.80;;;2.87;;
22697;SDS011;11516;51.612;7.510;2023-02-28T05:23:59;4.43;;;3.30;;
22697;SDS011;11516;51.612;7.510;2023-02-28T05:26:26;5.50;;;2.70;;
22697;SDS011;11516;51.612;7.510;2023-02-28T05:28:52;4.50;;;3.17;;
22697;SDS011;11516;51.612;7.510;2023-02-28T05:31:18;5.00;;;3.00;;
22697;SDS011;11516;51.612;7.510;2023-02-28T05:33:44;4.60;;;3.10;;
22697;SDS011;11516;51.612;7.510;2023-02-28T05:36:09;6.97;;;3.37;;
22697;SDS011;11516;51.612;7.510;2023-02-28T05:38:35;3.70;;;3.00;;
22697;SDS011;11516;51.612;7.510;2023-02-28T05:41:04;5.50;;;3.37;;
22697;SDS011;11516;51.612;7.510;2023-02-28T05:43:33;4.03;;;3.30;;
22697;SDS011;11516;51.612;7.510;2023-02-28T05:45:59;5.93;;;3.35;;
22697;SDS011;11516;51.612;7.510;2023-02-28T05:48:26;5.07;;;3.70;;
22697;SDS011;11516;51.612;7.510;2023-02-28T05:50:52;6.82;;;3.92;;
22697;SDS011;11516;51.612;7.510;2023-02-28T05:53:17;7.67;;;4.10;;
22697;SDS011;11516;51.612;7.510;2023-02-28T05:55:43;6.53;;;4.22;;
22697;SDS011;11516;51.612;7.510;2023-02-28T05:58:08;6.50;;;4.33;;
22697;SDS011;11516;51.612;7.510;2023-02-28T06:00:34;8.80;;;4.18;;
22697;SDS011;11516;51.612;7.510;2023-02-28T06:02:59;6.27;;;4.37;;
22697;SDS011;11516;51.612;7.510;2023-02-28T06:05:28;5.30;;;3.95;;
22697;SDS011;11516;51.612;7.510;2023-02-28T06:07:53;6.30;;;4.47;;
22697;SDS011;11516;51.612;7.510;2023-02-28T06:10:19;7.10;;;4.75;;
22697;SDS011;11516;51.612;7.510;2023-02-28T06:12:44;5.27;;;4.10;;
22697;SDS011;11516;51.612;7.510;2023-02-28T06:15:13;6.25;;;4.32;;
22697;SDS011;11516;51.612;7.510;2023-02-28T06:17:43;5.65;;;3.88;;
22697;SDS011;11516;51.612;7.510;2023-02-28T06:20:10;7.28;;;4.90;;
22697;SDS011;11516;51.612;7.510;2023-02-28T06:22:37;7.63;;;4.47;;
22697;SDS011;11516;51.612;7.510;2023-02-28T06:25:03;8.23;;;4.50;;
22697;SDS011;11516;51.612;7.510;2023-02-28T06:27:31;7.22;;;4.70;;
22697;SDS011;11516;51.612;7.510;2023-02-28T06:29:57;8.48;;;4.63;;
22697;SDS011;11516;51.612;7.510;2023-02-28T06:32:22;7.55;;;4.82;;
22697;SDS011;11516;51.612;7.510;2023-02-28T06:34:48;7.33;;;4.53;;
22697;SDS011;11516;51.612;7.510;2023-02-28T06:37:13;6.90;;;4.60;;
22697;SDS011;11516;51.612;7.510;2023-02-28T06:39:39;7.53;;;4.88;;
22697;SDS011;11516;51.612;7.510;2023-02-28T06:42:04;8.33;;;4.60;;
22697;SDS011;11516;51.612;7.510;2023-02-28T06:44:30;10.45;;;4.90;;
22697;SDS011;11516;51.612;7.510;2023-02-28T06:47:00;6.18;;;4.72;;
22697;SDS011;11516;51.612;7.510;2023-02-28T06:49:28;9.32;;;4.68;;
22697;SDS011;11516;51.612;7.510;2023-02-28T06:51:54;7.25;;;4.43;;
22697;SDS011;11516;51.612;7.510;2023-02-28T06:54:19;8.30;;;4.97;;
22697;SDS011;11516;51.612;7.510;2023-02-28T06:56:45;7.47;;;4.78;;
22697;SDS011;11516;51.612;7.510;2023-02-28T06:59:12;10.23;;;4.90;;
22697;SDS011;11516;51.612;7.510;2023-02-28T07:01:37;11.40;;;5.55;;
22697;SDS011;11516;51.612;7.510;2023-02-28T07:04:04;13.98;;;5.90;;
22697;SDS011;11516;51.612;7.510;2023-02-28T07:06:30;20.58;;;6.40;;
22697;SDS011;11516;51.612;7.510;2023-02-28T07:08:56;13.65;;;5.50;;
22697;SDS011;11516;51.612;7.510;2023-02-28T07:11:23;15.13;;;6.13;;
22697;SDS011;11516;51.612;7.510;2023-02-28T07:13:50;20.80;;;7.53;;
22697;SDS011;11516;51.612;7.510;2023-02-28T07:16:17;14.40;;;5.60;;
22697;SDS011;11516;51.612;7.510;2023-02-28T07:18:43;11.82;;;6.05;;
22697;SDS011;11516;51.612;7.510;2023-02-28T07:21:09;12.40;;;5.10;;
22697;SDS011;11516;51.612;7.510;2023-02-28T07:23:35;10.90;;;5.57;;
22697;SDS011;11516;51.612;7.510;2023-02-28T07:26:03;9.73;;;5.10;;
22697;SDS011;11516;51.612;7.510;2023-02-28T07:28:29;9.90;;;5.20;;
22697;SDS011;11516;51.612;7.510;2023-02-28T07:30:55;8.20;;;5.03;;
22697;SDS011;11516;51.612;7.510;2023-02-28T07:33:20;9.93;;;5.30;;
22697;SDS011;11516;51.612;7.510;2023-02-28T07:35:46;7.80;;;5.37;;
22697;SDS011;11516;51.612;7.510;2023-02-28T07:38:11;10.87;;;5.10;;
22697;SDS011;11516;51.612;7.510;2023-02-28T07:40:38;7.38;;;4.90;;
22697;SDS011;11516;51.612;7.510;2023-02-28T07:43:04;8.05;;;4.70;;
22697;SDS011;11516;51.612;7.510;2023-02-28T07:45:30;9.27;;;4.30;;
22697;SDS011;11516;51.612;7.510;2023-02-28T07:47:59;6.05;;;4.28;;
22697;SDS011;11516;51.612;7.510;2023-02-28T07:50:24;7.70;;;4.83;;
22697;SDS011;11516;51.612;7.510;2023-02-28T07:52:50;7.55;;;4.72;;
22697;SDS011;11516;51.612;7.510;2023-02-28T07:55:16;10.67;;;7.27;;
22697;SDS011;11516;51.612;7.510;2023-02-28T07:57:41;6.10;;;4.67;;
22697;SDS011;11516;51.612;7.510;2023-02-28T08:00:08;7.10;;;4.43;;
22697;SDS011;11516;51.612;7.510;2023-02-28T08:02:35;7.13;;;4.35;;
22697;SDS011;11516;51.612;7.510;2023-02-28T08:05:01;7.57;;;4.07;;
22697;SDS011;11516;51.612;7.510;2023-02-28T08:07:27;5.30;;;3.80;;
22697;SDS011;11516;51.612;7.510;2023-02-28T08:09:52;5.67;;;4.20;;
22697;SDS011;11516;51.612;7.510;2023-02-28T08:12:18;6.47;;;4.20;;
22697;SDS011;11516;51.612;7.510;2023-02-28T08:14:43;5.03;;;3.97;;
22697;SDS011;11516;51.612;7.510;2023-02-28T08:17:09;8.00;;;5.00;;
22697;SDS011;11516;51.612;7.510;2023-02-28T08:19:35;7.90;;;4.75;;
22697;SDS011;11516;51.612;7.510;2023-02-28T08:22:01;7.07;;;4.70;;
22697;SDS011;11516;51.612;7.510;2023-02-28T08:24:27;8.95;;;4.78;;
22697;SDS011;11516;51.612;7.510;2023-02-28T08:26:52;8.55;;;4.70;;
22697;SDS011;11516;51.612;7.510;2023-02-28T08:29:18;7.90;;;4.37;;
22697;SDS011;11516;51.612;7.510;2023-02-28T08:31:44;8.32;;;4.50;;
22697;SDS011;11516;51.612;7.510;2023-02-28T08:34:10;5.73;;;4.20;;
22697;SDS011;11516;51.612;7.510;2023-02-28T08:36:38;6.90;;;4.40;;
22697;SDS011;11516;51.612;7.510;2023-02-28T08:39:04;6.77;;;4.57;;
22697;SDS011;11516;51.612;7.510;2023-02-28T08:41:30;7.97;;;4.75;;
22697;SDS011;11516;51.612;7.510;2023-02-28T08:43:55;6.90;;;5.07;;
22697;SDS011;11516;51.612;7.510;2023-02-28T08:46:22;8.07;;;5.13;;
22697;SDS011;11516;51.612;7.510;2023-02-28T08:48:51;6.65;;;4.50;;
22697;SDS011;11516;51.612;7.510;2023-02-28T08:51:18;7.43;;;4.35;;
22697;SDS011;11516;51.612;7.510;2023-02-28T08:53:47;6.22;;;4.25;;
22697;SDS011;11516;51.612;7.510;2023-02-28T08:56:14;7.13;;;4.00;;
22697;SDS011;11516;51.612;7.510;2023-02-28T08:58:41;5.35;;;4.20;;
22697;SDS011;11516;51.612;7.510;2023-02-28T09:01:18;8.02;;;4.38;;
22697;SDS011;11516;51.612;7.510;2023-02-28T09:03:46;6.30;;;4.22;;
22697;SDS011;11516;51.612;7.510;2023-02-28T09:06:13;6.80;;;4.10;;
22697;SDS011;11516;51.612;7.510;2023-02-28T09:08:40;8.05;;;4.20;;
22697;SDS011;11516;51.612;7.510;2023-02-28T09:11:06;8.55;;;4.43;;
22697;SDS011;11516;51.612;7.510;2023-02-28T09:13:32;5.35;;;3.78;;
22697;SDS011;11516;51.612;7.510;2023-02-28T09:15:59;6.88;;;4.70;;
22697;SDS011;11516;51.612;7.510;2023-02-28T09:18:26;7.35;;;4.15;;
22697;SDS011;11516;51.612;7.510;2023-02-28T09:20:51;7.97;;;4.40;;
22697;SDS011;11516;51.612;7.510;2023-02-28T09:23:17;5.65;;;3.80;;
22697;SDS011;11516;51.612;7.510;2023-02-28T09:25:46;6.33;;;3.90;;
22697;SDS011;11516;51.612;7.510;2023-02-28T09:28:14;5.10;;;3.97;;
22697;SDS011;11516;51.612;7.510;2023-02-28T09:30:41;5.75;;;4.13;;
22697;SDS011;11516;51.612;7.510;2023-02-28T09:33:06;6.27;;;3.80;;
22697;SDS011;11516;51.612;7.510;2023-02-28T09:35:32;5.75;;;3.85;;
22697;SDS011;11516;51.612;7.510;2023-02-28T09:37:58;6.67;;;3.60;;
22697;SDS011;11516;51.612;7.510;2023-02-28T09:40:24;6.65;;;3.60;;
22697;SDS011;11516;51.612;7.510;2023-02-28T09:42:51;5.95;;;3.83;;
22697;SDS011;11516;51.612;7.510;2023-02-28T09:45:24;4.78;;;3.30;;
22697;SDS011;11516;51.612;7.510;2023-02-28T09:48:06;5.45;;;3.83;;
22697;SDS011;11516;51.612;7.510;2023-02-28T09:50:41;5.25;;;2.95;;
22697;SDS011;11516;51.612;7.510;2023-02-28T09:53:17;4.97;;;2.97;;
22697;SDS011;11516;51.612;7.510;2023-02-28T09:55:58;4.50;;;2.65;;
22697;SDS011;11516;51.612;7.510;2023-02-28T09:58:29;3.20;;;2.90;;
22697;SDS011;11516;51.612;7.510;2023-02-28T10:01:03;6.13;;;2.77;;
22697;SDS011;11516;51.612;7.510;2023-02-28T10:03:36;2.90;;;2.58;;
22697;SDS011;11516;51.612;7.510;2023-02-28T10:06:11;4.65;;;2.50;;
22697;SDS011;11516;51.612;7.510;2023-02-28T10:09:03;4.65;;;2.72;;
22697;SDS011;11516;51.612;7.510;2023-02-28T10:11:30;6.25;;;2.40;;
22697;SDS011;11516;51.612;7.510;2023-02-28T10:14:02;3.22;;;2.00;;
22697;SDS011;11516;51.612;7.510;2023-02-28T10:16:43;2.73;;;2.20;;
22697;SDS011;11516;51.612;7.510;2023-02-28T10:22:05;2.72;;;2.15;;
22697;SDS011;11516;51.612;7.510;2023-02-28T10:24:47;3.97;;;2.50;;
22697;SDS011;11516;51.612;7.510;2023-02-28T10:27:19;2.80;;;1.90;;
22697;SDS011;11516;51.612;7.510;2023-02-28T10:29:46;4.05;;;2.03;;
22697;SDS011;11516;51.612;7.510;2023-02-28T10:32:20;2.25;;;1.95;;
22697;SDS011;11516;51.612;7.510;2023-02-28T10:34:51;2.30;;;1.90;;
22697;SDS011;11516;51.612;7.510;2023-02-28T10:37:21;4.00;;;2.13;;
22697;SDS011;11516;51.612;7.510;2023-02-28T10:39:47;2.50;;;2.20;;
22697;SDS011;11516;51.612;7.510;2023-02-28T10:42:20;3.40;;;2.30;;
22697;SDS011;11516;51.612;7.510;2023-02-28T10:45:01;3.28;;;2.17;;
22697;SDS011;11516;51.612;7.510;2023-02-28T10:47:51;4.85;;;2.00;;
22697;SDS011;11516;51.612;7.510;2023-02-28T10:50:34;4.43;;;1.88;;
22697;SDS011;11516;51.612;7.510;2023-02-28T10:53:10;3.33;;;2.13;;
22697;SDS011;11516;51.612;7.510;2023-02-28T10:56:01;2.20;;;1.83;;
22697;SDS011;11516;51.612;7.510;2023-02-28T10:58:29;3.17;;;2.15;;
22697;SDS011;11516;51.612;7.510;2023-02-28T11:01:16;3.03;;;2.45;;
22697;SDS011;11516;51.612;7.510;2023-02-28T11:03:58;2.97;;;2.10;;
22697;SDS011;11516;51.612;7.510;2023-02-28T11:06:31;2.60;;;2.30;;
22697;SDS011;11516;51.612;7.510;2023-02-28T11:08:59;3.72;;;2.10;;
22697;SDS011;11516;51.612;7.510;2023-02-28T11:11:28;3.80;;;2.40;;
22697;SDS011;11516;51.612;7.510;2023-02-28T11:14:02;6.50;;;2.25;;
22697;SDS011;11516;51.612;7.510;2023-02-28T11:16:31;2.60;;;2.08;;
22697;SDS011;11516;51.612;7.510;2023-02-28T11:19:02;3.35;;;2.50;;
22697;SDS011;11516;51.612;7.510;2023-02-28T11:21:31;5.20;;;2.17;;
22697;SDS011;11516;51.612;7.510;2023-02-28T11:24:03;3.10;;;2.13;;
22697;SDS011;11516;51.612;7.510;2023-02-28T11:26:39;3.47;;;2.10;;
22697;SDS011;11516;51.612;7.510;2023-02-28T11:29:11;3.72;;;2.40;;
22697;SDS011;11516;51.612;7.510;2023-02-28T11:31:44;3.45;;;2.40;;
22697;SDS011;11516;51.612;7.510;2023-02-28T11:34:45;2.58;;;2.20;;
22697;SDS011;11516;51.612;7.510;2023-02-28T11:37:13;3.50;;;2.30;;
22697;SDS011;11516;51.612;7.510;2023-02-28T11:39:41;5.38;;;2.70;;
22697;SDS011;11516;51.612;7.510;2023-02-28T11:44:47;4.00;;;2.50;;
22697;SDS011;11516;51.612;7.510;2023-02-28T11:47:36;3.63;;;2.42;;
22697;SDS011;11516;51.612;7.510;2023-02-28T11:50:13;4.25;;;2.58;;
22697;SDS011;11516;51.612;7.510;2023-02-28T11:53:01;3.10;;;2.50;;
22697;SDS011;11516;51.612;7.510;2023-02-28T11:55:54;3.60;;;2.78;;
22697;SDS011;11516;51.612;7.510;2023-02-28T11:58:42;3.25;;;2.92;;
22697;SDS011;11516;51.612;7.510;2023-02-28T12:10:00;2.55;;;2.35;;
22697;SDS011;11516;51.612;7.510;2023-02-28T12:15:17;5.68;;;3.17;;
22697;SDS011;11516;51.612;7.510;2023-02-28T12:20:36;4.93;;;2.80;;
22697;SDS011;11516;51.612;7.510;2023-02-28T12:28:27;3.93;;;2.70;;
22697;SDS011;11516;51.612;7.510;2023-02-28T12:31:04;3.40;;;2.50;;
22697;SDS011;11516;51.612;7.510;2023-02-28T12:33:35;3.72;;;2.17;;
22697;SDS011;11516;51.612;7.510;2023-02-28T12:36:10;2.78;;;1.92;;
22697;SDS011;11516;51.612;7.510;2023-02-28T12:38:47;3.58;;;2.20;;
22697;SDS011;11516;51.612;7.510;2023-02-28T12:41:19;2.22;;;1.85;;
22697;SDS011;11516;51.612;7.510;2023-02-28T12:43:57;2.95;;;2.20;;
22697;SDS011;11516;51.612;7.510;2023-02-28T12:46:30;3.17;;;2.30;;
22697;SDS011;11516;51.612;7.510;2023-02-28T12:49:12;2.97;;;2.20;;
22697;SDS011;11516;51.612;7.510;2023-02-28T12:51:43;3.13;;;2.67;;
22697;SDS011;11516;51.612;7.510;2023-02-28T12:56:44;4.00;;;2.50;;
22697;SDS011;11516;51.612;7.510;2023-02-28T13:07:10;6.53;;;2.88;;
22697;SDS011;11516;51.612;7.510;2023-02-28T13:09:53;2.75;;;2.53;;
22697;SDS011;11516;51.612;7.510;2023-02-28T13:12:21;3.75;;;2.80;;
22697;SDS011;11516;51.612;7.510;2023-02-28T13:14:48;3.13;;;2.83;;
22697;SDS011;11516;51.612;7.510;2023-02-28T13:17:21;9.32;;;5.90;;
22697;SDS011;11516;51.612;7.510;2023-02-28T13:22:20;2.60;;;2.40;;
22697;SDS011;11516;51.612;7.510;2023-02-28T13:28:03;3.38;;;2.45;;
22697;SDS011;11516;51.612;7.510;2023-02-28T13:38:34;3.10;;;2.72;;
22697;SDS011;11516;51.612;7.510;2023-02-28T13:46:35;3.75;;;2.60;;
22697;SDS011;11516;51.612;7.510;2023-02-28T13:49:44;3.53;;;2.85;;
22697;SDS011;11516;51.612;7.510;2023-02-28T13:57:20;3.65;;;2.75;;
22697;SDS011;11516;51.612;7.510;2023-02-28T14:02:40;4.85;;;3.10;;
22697;SDS011;11516;51.612;7.510;2023-02-28T14:05:19;3.33;;;2.60;;
22697;SDS011;11516;51.612;7.510;2023-02-28T14:07:54;4.20;;;3.00;;
22697;SDS011;11516;51.612;7.510;2023-02-28T14:10:33;4.03;;;2.58;;
22697;SDS011;11516;51.612;7.510;2023-02-28T14:16:02;3.58;;;2.60;;
22697;SDS011;11516;51.612;7.510;2023-02-28T14:24:13;3.60;;;2.53;;
22697;SDS011;11516;51.612;7.510;2023-02-28T14:26:55;2.97;;;2.55;;
22697;SDS011;11516;51.612;7.510;2023-02-28T14:32:25;4.28;;;2.53;;
22697;SDS011;11516;51.612;7.510;2023-02-28T14:35:10;3.17;;;2.78;;
22697;SDS011;11516;51.612;7.510;2023-02-28T14:37:53;3.10;;;2.80;;
22697;SDS011;11516;51.612;7.510;2023-02-28T14:40:21;4.43;;;2.80;;
22697;SDS011;11516;51.612;7.510;2023-02-28T14:42:59;3.47;;;2.78;;
22697;SDS011;11516;51.612;7.510;2023-02-28T14:45:27;3.35;;;2.55;;
22697;SDS011;11516;51.612;7.510;2023-02-28T14:47:55;3.53;;;2.90;;
22697;SDS011;11516;51.612;7.510;2023-02-28T14:50:23;5.03;;;2.90;;
22697;SDS011;11516;51.612;7.510;2023-02-28T14:52:55;3.90;;;2.88;;
22697;SDS011;11516;51.612;7.510;2023-02-28T14:55:32;2.90;;;2.50;;
22697;SDS011;11516;51.612;7.510;2023-02-28T14:58:01;4.05;;;3.00;;
22697;SDS011;11516;51.612;7.510;2023-02-28T15:00:32;3.13;;;2.80;;
22697;SDS011;11516;51.612;7.510;2023-02-28T15:03:00;2.85;;;2.65;;
22697;SDS011;11516;51.612;7.510;2023-02-28T15:05:37;3.60;;;3.10;;
22697;SDS011;11516;51.612;7.510;2023-02-28T15:10:36;3.78;;;2.90;;
22697;SDS011;11516;51.612;7.510;2023-02-28T15:13:04;4.45;;;2.97;;
22697;SDS011;11516;51.612;7.510;2023-02-28T15:15:39;4.05;;;3.03;;
22697;SDS011;11516;51.612;7.510;2023-02-28T15:18:34;3.25;;;2.95;;
22697;SDS011;11516;51.612;7.510;2023-02-28T15:21:13;3.95;;;3.30;;
22697;SDS011;11516;51.612;7.510;2023-02-28T15:23:42;4.22;;;3.35;;
22697;SDS011;11516;51.612;7.510;2023-02-28T15:26:18;3.47;;;3.17;;
22697;SDS011;11516;51.612;7.510;2023-02-28T15:28:48;4.93;;;3.15;;
22697;SDS011;11516;51.612;7.510;2023-02-28T15:31:26;4.38;;;3.13;;
22697;SDS011;11516;51.612;7.510;2023-02-28T15:33:57;4.57;;;3.05;;
22697;SDS011;11516;51.612;7.510;2023-02-28T15:36:32;4.65;;;3.20;;
22697;SDS011;11516;51.612;7.510;2023-02-28T15:39:02;4.05;;;3.10;;
22697;SDS011;11516;51.612;7.510;2023-02-28T15:41:29;4.35;;;2.90;;
22697;SDS011;11516;51.612;7.510;2023-02-28T15:46:56;6.40;;;3.83;;
22697;SDS011;11516;51.612;7.510;2023-02-28T15:49:29;4.57;;;3.22;;
22697;SDS011;11516;51.612;7.510;2023-02-28T15:52:02;3.60;;;2.83;;
22697;SDS011;11516;51.612;7.510;2023-02-28T15:54:32;4.60;;;2.55;;
22697;SDS011;11516;51.612;7.510;2023-02-28T15:57:02;4.03;;;2.93;;
22697;SDS011;11516;51.612;7.510;2023-02-28T15:59:33;3.50;;;2.92;;
22697;SDS011;11516;51.612;7.510;2023-02-28T16:02:03;3.45;;;2.90;;
22697;SDS011;11516;51.612;7.510;2023-02-28T16:04:29;4.10;;;3.05;;
22697;SDS011;11516;51.612;7.510;2023-02-28T16:09:27;3.17;;;2.50;;
22697;SDS011;11516;51.612;7.510;2023-02-28T16:11:55;4.05;;;2.88;;
22697;SDS011;11516;51.612;7.510;2023-02-28T16:14:22;4.45;;;3.10;;
22697;SDS011;11516;51.612;7.510;2023-02-28T16:16:52;4.43;;;2.83;;
22697;SDS011;11516;51.612;7.510;2023-02-28T16:19:21;3.53;;;3.10;;
22697;SDS011;11516;51.612;7.510;2023-02-28T16:21:48;5.18;;;3.13;;
22697;SDS011;11516;51.612;7.510;2023-02-28T16:24:14;5.22;;;3.20;;
22697;SDS011;11516;51.612;7.510;2023-02-28T16:26:40;6.07;;;3.57;;
22697;SDS011;11516;51.612;7.510;2023-02-28T16:29:09;5.05;;;3.35;;
22697;SDS011;11516;51.612;7.510;2023-02-28T16:31:40;5.07;;;3.60;;
22697;SDS011;11516;51.612;7.510;2023-02-28T16:34:05;6.00;;;3.20;;
22697;SDS011;11516;51.612;7.510;2023-02-28T16:36:31;4.07;;;3.20;;
22697;SDS011;11516;51.612;7.510;2023-02-28T16:38:57;5.60;;;3.50;;
22697;SDS011;11516;51.612;7.510;2023-02-28T16:41:24;4.63;;;3.50;;
22697;SDS011;11516;51.612;7.510;2023-02-28T16:43:53;5.47;;;3.50;;
22697;SDS011;11516;51.612;7.510;2023-02-28T16:46:23;5.25;;;3.42;;
22697;SDS011;11516;51.612;7.510;2023-02-28T16:48:50;6.63;;;3.78;;
22697;SDS011;11516;51.612;7.510;2023-02-28T16:51:16;5.27;;;3.50;;
22697;SDS011;11516;51.612;7.510;2023-02-28T16:53:43;6.40;;;3.42;;
22697;SDS011;11516;51.612;7.510;2023-02-28T16:56:20;5.95;;;3.63;;